sensor_id;sensor_type;location;lat;lon;timestamp;P1;durP1;ratioP1;P2;durP2;ratioP2
12906;SDS011;6521;50.498;8.474;2022-08-19T00:02:25;19.38;;;17.48;;
12906;SDS011;6521;50.498;8.474;2022-08-19T00:04:56;18.88;;;16.90;;
12906;SDS011;6521;50.498;8.474;2022-08-19T00:07:27;19.08;;;17.02;;
12906;SDS011;6521;50.498;8.474;2022-08-19T00:09:57;18.05;;;16.20;;
12906;SDS011;6521;50.498;8.474;2022-08-19T00:12:28;19.08;;;17.10;;
12906;SDS011;6521;50.498;8.474;2022-08-19T00:14:59;22.35;;;16.88;;
12906;SDS011;6521;50.498;8.474;2022-08-19T00:17:30;19.10;;;17.10;;
12906;SDS011;6521;50.498;8.474;2022-08-19T00:20:00;18.90;;;16.95;;
12906;SDS011;6521;50.498;8.474;2022-08-19T00:22:31;19.27;;;17.02;;
12906;SDS011;6521;50.498;8.474;2022-08-19T00:25:03;22.10;;;17.33;;
12906;SDS011;6521;50.498;8.474;2022-08-19T00:27:36;23.52;;;18.67;;
12906;SDS011;6521;50.498;8.474;2022-08-19T00:30:07;21.88;;;18.35;;
12906;SDS011;6521;50.498;8.474;2022-08-19T00:32:39;18.48;;;16.67;;
12906;SDS011;6521;50.498;8.474;2022-08-19T00:35:10;21.13;;;19.02;;
12906;SDS011;6521;50.498;8.474;2022-08-19T00:37:41;18.95;;;17.05;;
12906;SDS011;6521;50.498;8.474;2022-08-19T00:40:14;23.48;;;19.52;;
12906;SDS011;6521;50.498;8.474;2022-08-19T00:42:46;20.10;;;18.00;;
12906;SDS011;6521;50.498;8.474;2022-08-19T00:45:17;22.55;;;19.38;;
12906;SDS011;6521;50.498;8.474;2022-08-19T00:47:50;20.95;;;18.75;;
12906;SDS011;6521;50.498;8.474;2022-08-19T00:50:21;20.50;;;18.27;;
12906;SDS011;6521;50.498;8.474;2022-08-19T00:52:52;18.83;;;16.90;;
12906;SDS011;6521;50.498;8.474;2022-08-19T00:55:24;21.08;;;18.80;;
12906;SDS011;6521;50.498;8.474;2022-08-19T00:58:00;20.52;;;18.20;;
12906;SDS011;6521;50.498;8.474;2022-08-19T01:00:34;20.80;;;18.60;;
12906;SDS011;6521;50.498;8.474;2022-08-19T01:03:08;21.35;;;19.08;;
12906;SDS011;6521;50.498;8.474;2022-08-19T01:05:42;22.70;;;20.20;;
12906;SDS011;6521;50.498;8.474;2022-08-19T01:08:15;21.70;;;19.20;;
12906;SDS011;6521;50.498;8.474;2022-08-19T01:10:52;25.15;;;21.45;;
12906;SDS011;6521;50.498;8.474;2022-08-19T01:13:26;23.17;;;20.33;;
12906;SDS011;6521;50.498;8.474;2022-08-19T01:16:02;22.52;;;20.20;;
12906;SDS011;6521;50.498;8.474;2022-08-19T01:18:39;22.27;;;19.83;;
12906;SDS011;6521;50.498;8.474;2022-08-19T01:21:55;22.92;;;20.52;;
12906;SDS011;6521;50.498;8.474;2022-08-19T01:24:08;24.67;;;22.20;;
12906;SDS011;6521;50.498;8.474;2022-08-19T01:26:40;23.27;;;20.33;;
12906;SDS011;6521;50.498;8.474;2022-08-19T01:29:13;26.38;;;21.55;;
12906;SDS011;6521;50.498;8.474;2022-08-19T01:31:44;23.58;;;19.98;;
12906;SDS011;6521;50.498;8.474;2022-08-19T01:34:15;23.77;;;20.38;;
12906;SDS011;6521;50.498;8.474;2022-08-19T01:36:46;23.67;;;21.17;;
12906;SDS011;6521;50.498;8.474;2022-08-19T01:39:19;23.65;;;19.85;;
12906;SDS011;6521;50.498;8.474;2022-08-19T01:41:52;25.60;;;21.48;;
12906;SDS011;6521;50.498;8.474;2022-08-19T01:44:24;21.50;;;19.30;;
12906;SDS011;6521;50.498;8.474;2022-08-19T01:46:55;22.40;;;20.05;;
12906;SDS011;6521;50.498;8.474;2022-08-19T01:49:26;24.55;;;20.08;;
12906;SDS011;6521;50.498;8.474;2022-08-19T01:51:56;21.98;;;19.67;;
12906;SDS011;6521;50.498;8.474;2022-08-19T01:54:30;21.35;;;19.15;;
12906;SDS011;6521;50.498;8.474;2022-08-19T01:57:03;22.55;;;20.05;;
12906;SDS011;6521;50.498;8.474;2022-08-19T01:59:36;21.83;;;19.48;;
12906;SDS011;6521;50.498;8.474;2022-08-19T02:02:09;19.45;;;17.45;;
12906;SDS011;6521;50.498;8.474;2022-08-19T02:04:39;19.90;;;17.90;;
12906;SDS011;6521;50.498;8.474;2022-08-19T02:07:10;24.77;;;18.40;;
12906;SDS011;6521;50.498;8.474;2022-08-19T02:09:41;20.33;;;17.67;;
12906;SDS011;6521;50.498;8.474;2022-08-19T02:12:11;21.38;;;18.48;;
12906;SDS011;6521;50.498;8.474;2022-08-19T02:14:42;19.50;;;17.50;;
12906;SDS011;6521;50.498;8.474;2022-08-19T02:17:13;20.77;;;18.25;;
12906;SDS011;6521;50.498;8.474;2022-08-19T02:19:43;21.05;;;18.77;;
12906;SDS011;6521;50.498;8.474;2022-08-19T02:22:14;21.45;;;19.17;;
12906;SDS011;6521;50.498;8.474;2022-08-19T02:24:45;20.88;;;18.73;;
12906;SDS011;6521;50.498;8.474;2022-08-19T02:27:16;21.15;;;18.98;;
12906;SDS011;6521;50.498;8.474;2022-08-19T02:29:48;19.73;;;17.65;;
12906;SDS011;6521;50.498;8.474;2022-08-19T02:32:19;20.88;;;18.67;;
12906;SDS011;6521;50.498;8.474;2022-08-19T02:34:50;19.85;;;17.75;;
12906;SDS011;6521;50.498;8.474;2022-08-19T02:37:20;19.65;;;17.55;;
12906;SDS011;6521;50.498;8.474;2022-08-19T02:40:10;20.67;;;17.30;;
12906;SDS011;6521;50.498;8.474;2022-08-19T02:42:41;20.27;;;18.10;;
12906;SDS011;6521;50.498;8.474;2022-08-19T02:45:13;21.02;;;18.17;;
12906;SDS011;6521;50.498;8.474;2022-08-19T02:47:44;19.70;;;17.60;;
12906;SDS011;6521;50.498;8.474;2022-08-19T02:50:14;19.63;;;17.55;;
12906;SDS011;6521;50.498;8.474;2022-08-19T02:52:45;21.17;;;17.85;;
12906;SDS011;6521;50.498;8.474;2022-08-19T02:55:15;19.92;;;15.90;;
12906;SDS011;6521;50.498;8.474;2022-08-19T02:57:46;18.33;;;16.50;;
12906;SDS011;6521;50.498;8.474;2022-08-19T03:00:17;18.05;;;16.23;;
12906;SDS011;6521;50.498;8.474;2022-08-19T03:02:48;21.55;;;16.70;;
12906;SDS011;6521;50.498;8.474;2022-08-19T03:05:20;18.10;;;16.38;;
12906;SDS011;6521;50.498;8.474;2022-08-19T03:07:50;19.67;;;17.60;;
12906;SDS011;6521;50.498;8.474;2022-08-19T03:10:21;21.17;;;17.52;;
12906;SDS011;6521;50.498;8.474;2022-08-19T03:12:51;20.95;;;16.98;;
12906;SDS011;6521;50.498;8.474;2022-08-19T03:15:22;18.63;;;16.65;;
12906;SDS011;6521;50.498;8.474;2022-08-19T03:17:53;18.75;;;16.08;;
12906;SDS011;6521;50.498;8.474;2022-08-19T03:20:24;18.83;;;17.00;;
12906;SDS011;6521;50.498;8.474;2022-08-19T03:22:55;19.23;;;16.70;;
12906;SDS011;6521;50.498;8.474;2022-08-19T03:25:26;17.85;;;16.15;;
12906;SDS011;6521;50.498;8.474;2022-08-19T03:27:57;18.25;;;16.35;;
12906;SDS011;6521;50.498;8.474;2022-08-19T03:30:27;19.45;;;15.93;;
12906;SDS011;6521;50.498;8.474;2022-08-19T03:32:58;17.48;;;15.77;;
12906;SDS011;6521;50.498;8.474;2022-08-19T03:35:28;17.48;;;15.63;;
12906;SDS011;6521;50.498;8.474;2022-08-19T03:37:59;17.63;;;15.38;;
12906;SDS011;6521;50.498;8.474;2022-08-19T03:40:30;17.60;;;15.50;;
12906;SDS011;6521;50.498;8.474;2022-08-19T03:43:05;22.02;;;15.50;;
12906;SDS011;6521;50.498;8.474;2022-08-19T03:45:36;16.45;;;14.75;;
12906;SDS011;6521;50.498;8.474;2022-08-19T03:48:07;16.55;;;14.85;;
12906;SDS011;6521;50.498;8.474;2022-08-19T03:50:38;19.40;;;16.08;;
12906;SDS011;6521;50.498;8.474;2022-08-19T03:53:10;18.15;;;16.25;;
12906;SDS011;6521;50.498;8.474;2022-08-19T03:55:40;18.35;;;15.75;;
12906;SDS011;6521;50.498;8.474;2022-08-19T03:58:11;17.77;;;15.93;;
12906;SDS011;6521;50.498;8.474;2022-08-19T04:00:42;17.00;;;15.30;;
12906;SDS011;6521;50.498;8.474;2022-08-19T04:03:13;17.30;;;15.20;;
12906;SDS011;6521;50.498;8.474;2022-08-19T04:05:44;18.55;;;15.15;;
12906;SDS011;6521;50.498;8.474;2022-08-19T04:08:16;21.95;;;15.82;;
12906;SDS011;6521;50.498;8.474;2022-08-19T04:10:50;17.50;;;15.70;;
12906;SDS011;6521;50.498;8.474;2022-08-19T04:13:20;17.92;;;15.93;;
12906;SDS011;6521;50.498;8.474;2022-08-19T04:15:51;18.77;;;16.65;;
12906;SDS011;6521;50.498;8.474;2022-08-19T04:18:23;17.98;;;16.08;;
12906;SDS011;6521;50.498;8.474;2022-08-19T04:20:54;17.73;;;15.93;;
12906;SDS011;6521;50.498;8.474;2022-08-19T04:23:24;18.02;;;15.35;;
12906;SDS011;6521;50.498;8.474;2022-08-19T04:25:58;18.48;;;15.65;;
12906;SDS011;6521;50.498;8.474;2022-08-19T04:28:28;16.77;;;14.90;;
12906;SDS011;6521;50.498;8.474;2022-08-19T04:30:59;17.13;;;15.43;;
12906;SDS011;6521;50.498;8.474;2022-08-19T04:33:30;16.60;;;14.68;;
12906;SDS011;6521;50.498;8.474;2022-08-19T04:36:01;17.73;;;15.85;;
12906;SDS011;6521;50.498;8.474;2022-08-19T04:38:32;19.77;;;15.85;;
12906;SDS011;6521;50.498;8.474;2022-08-19T04:41:03;19.50;;;14.60;;
12906;SDS011;6521;50.498;8.474;2022-08-19T04:43:53;17.05;;;15.00;;
12906;SDS011;6521;50.498;8.474;2022-08-19T04:46:24;18.73;;;15.02;;
12906;SDS011;6521;50.498;8.474;2022-08-19T04:48:55;18.98;;;15.70;;
12906;SDS011;6521;50.498;8.474;2022-08-19T04:51:27;17.02;;;15.13;;
12906;SDS011;6521;50.498;8.474;2022-08-19T04:53:58;16.58;;;14.98;;
12906;SDS011;6521;50.498;8.474;2022-08-19T04:56:30;16.05;;;14.45;;
12906;SDS011;6521;50.498;8.474;2022-08-19T04:59:01;20.73;;;14.20;;
12906;SDS011;6521;50.498;8.474;2022-08-19T05:01:34;23.48;;;15.02;;
12906;SDS011;6521;50.498;8.474;2022-08-19T05:04:06;24.85;;;15.15;;
12906;SDS011;6521;50.498;8.474;2022-08-19T05:06:38;26.40;;;15.50;;
12906;SDS011;6521;50.498;8.474;2022-08-19T05:09:09;29.75;;;15.02;;
12906;SDS011;6521;50.498;8.474;2022-08-19T05:11:40;19.42;;;14.90;;
12906;SDS011;6521;50.498;8.474;2022-08-19T05:14:11;21.60;;;14.90;;
12906;SDS011;6521;50.498;8.474;2022-08-19T05:16:43;15.95;;;13.82;;
12906;SDS011;6521;50.498;8.474;2022-08-19T05:19:13;24.38;;;14.50;;
12906;SDS011;6521;50.498;8.474;2022-08-19T05:22:02;15.10;;;13.60;;
12906;SDS011;6521;50.498;8.474;2022-08-19T05:24:51;18.27;;;14.73;;
12906;SDS011;6521;50.498;8.474;2022-08-19T05:27:22;19.80;;;14.60;;
12906;SDS011;6521;50.498;8.474;2022-08-19T05:29:52;15.75;;;13.30;;
12906;SDS011;6521;50.498;8.474;2022-08-19T05:32:23;23.20;;;13.82;;
12906;SDS011;6521;50.498;8.474;2022-08-19T05:34:54;22.80;;;14.00;;
12906;SDS011;6521;50.498;8.474;2022-08-19T05:37:25;18.08;;;14.00;;
12906;SDS011;6521;50.498;8.474;2022-08-19T05:39:57;16.23;;;14.10;;
12906;SDS011;6521;50.498;8.474;2022-08-19T05:42:28;16.60;;;14.65;;
12906;SDS011;6521;50.498;8.474;2022-08-19T05:44:59;18.42;;;14.05;;
12906;SDS011;6521;50.498;8.474;2022-08-19T05:47:29;18.83;;;14.35;;
12906;SDS011;6521;50.498;8.474;2022-08-19T05:50:00;18.15;;;14.05;;
12906;SDS011;6521;50.498;8.474;2022-08-19T05:52:32;23.52;;;14.55;;
12906;SDS011;6521;50.498;8.474;2022-08-19T05:55:02;20.00;;;13.65;;
12906;SDS011;6521;50.498;8.474;2022-08-19T05:57:33;16.17;;;13.90;;
12906;SDS011;6521;50.498;8.474;2022-08-19T06:00:04;16.75;;;13.13;;
12906;SDS011;6521;50.498;8.474;2022-08-19T06:02:42;14.77;;;13.00;;
12906;SDS011;6521;50.498;8.474;2022-08-19T06:05:12;15.60;;;12.90;;
12906;SDS011;6521;50.498;8.474;2022-08-19T06:07:43;18.00;;;13.98;;
12906;SDS011;6521;50.498;8.474;2022-08-19T06:10:14;17.23;;;13.82;;
12906;SDS011;6521;50.498;8.474;2022-08-19T06:12:44;16.48;;;13.20;;
12906;SDS011;6521;50.498;8.474;2022-08-19T06:15:15;14.00;;;12.68;;
12906;SDS011;6521;50.498;8.474;2022-08-19T06:17:46;14.57;;;12.43;;
12906;SDS011;6521;50.498;8.474;2022-08-19T06:20:16;16.92;;;11.10;;
12906;SDS011;6521;50.498;8.474;2022-08-19T06:22:48;18.50;;;13.30;;
12906;SDS011;6521;50.498;8.474;2022-08-19T06:25:20;15.05;;;12.90;;
12906;SDS011;6521;50.498;8.474;2022-08-19T06:27:51;13.85;;;12.00;;
12906;SDS011;6521;50.498;8.474;2022-08-19T06:30:21;13.85;;;12.35;;
12906;SDS011;6521;50.498;8.474;2022-08-19T06:32:52;14.10;;;12.00;;
12906;SDS011;6521;50.498;8.474;2022-08-19T06:35:23;14.57;;;11.68;;
12906;SDS011;6521;50.498;8.474;2022-08-19T06:37:54;14.95;;;11.48;;
12906;SDS011;6521;50.498;8.474;2022-08-19T06:40:25;12.60;;;9.93;;
12906;SDS011;6521;50.498;8.474;2022-08-19T06:42:57;15.13;;;12.25;;
12906;SDS011;6521;50.498;8.474;2022-08-19T06:45:30;12.60;;;10.45;;
12906;SDS011;6521;50.498;8.474;2022-08-19T06:48:00;13.00;;;10.40;;
12906;SDS011;6521;50.498;8.474;2022-08-19T06:50:31;11.30;;;10.10;;
12906;SDS011;6521;50.498;8.474;2022-08-19T06:53:02;14.32;;;11.15;;
12906;SDS011;6521;50.498;8.474;2022-08-19T06:55:33;11.43;;;10.07;;
12906;SDS011;6521;50.498;8.474;2022-08-19T06:58:04;15.93;;;10.27;;
12906;SDS011;6521;50.498;8.474;2022-08-19T07:00:35;13.75;;;9.63;;
12906;SDS011;6521;50.498;8.474;2022-08-19T07:03:06;11.35;;;9.88;;
12906;SDS011;6521;50.498;8.474;2022-08-19T07:05:38;10.80;;;9.75;;
12906;SDS011;6521;50.498;8.474;2022-08-19T07:08:11;9.85;;;8.65;;
12906;SDS011;6521;50.498;8.474;2022-08-19T07:10:42;12.65;;;9.10;;
12906;SDS011;6521;50.498;8.474;2022-08-19T07:13:14;12.30;;;7.60;;
12906;SDS011;6521;50.498;8.474;2022-08-19T07:15:45;10.02;;;7.90;;
12906;SDS011;6521;50.498;8.474;2022-08-19T07:18:17;8.68;;;7.38;;
12906;SDS011;6521;50.498;8.474;2022-08-19T07:20:49;9.38;;;7.78;;
12906;SDS011;6521;50.498;8.474;2022-08-19T07:23:20;10.20;;;8.55;;
12906;SDS011;6521;50.498;8.474;2022-08-19T07:25:51;10.57;;;8.38;;
12906;SDS011;6521;50.498;8.474;2022-08-19T07:28:22;12.00;;;8.25;;
12906;SDS011;6521;50.498;8.474;2022-08-19T07:30:53;10.00;;;7.93;;
12906;SDS011;6521;50.498;8.474;2022-08-19T07:33:23;9.63;;;7.65;;
12906;SDS011;6521;50.498;8.474;2022-08-19T07:35:54;12.45;;;8.18;;
12906;SDS011;6521;50.498;8.474;2022-08-19T07:38:25;11.00;;;9.55;;
12906;SDS011;6521;50.498;8.474;2022-08-19T07:40:56;10.65;;;9.25;;
12906;SDS011;6521;50.498;8.474;2022-08-19T07:43:27;14.68;;;9.98;;
12906;SDS011;6521;50.498;8.474;2022-08-19T07:45:58;11.27;;;10.00;;
12906;SDS011;6521;50.498;8.474;2022-08-19T07:48:29;10.27;;;9.10;;
12906;SDS011;6521;50.498;8.474;2022-08-19T07:51:03;12.13;;;7.95;;
12906;SDS011;6521;50.498;8.474;2022-08-19T07:53:36;11.10;;;8.25;;
12906;SDS011;6521;50.498;8.474;2022-08-19T07:56:07;10.50;;;9.43;;
12906;SDS011;6521;50.498;8.474;2022-08-19T07:58:39;10.93;;;9.82;;
12906;SDS011;6521;50.498;8.474;2022-08-19T08:01:15;13.80;;;12.40;;
12906;SDS011;6521;50.498;8.474;2022-08-19T08:03:50;14.75;;;12.02;;
12906;SDS011;6521;50.498;8.474;2022-08-19T08:06:39;13.55;;;10.80;;
12906;SDS011;6521;50.498;8.474;2022-08-19T08:09:30;13.32;;;11.82;;
12906;SDS011;6521;50.498;8.474;2022-08-19T08:14:47;10.38;;;9.38;;
12906;SDS011;6521;50.498;8.474;2022-08-19T08:17:21;13.52;;;10.68;;
12906;SDS011;6521;50.498;8.474;2022-08-19T08:19:54;13.10;;;11.32;;
12906;SDS011;6521;50.498;8.474;2022-08-19T08:22:26;14.68;;;8.82;;
12906;SDS011;6521;50.498;8.474;2022-08-19T08:25:17;11.63;;;10.60;;
12906;SDS011;6521;50.498;8.474;2022-08-19T08:27:50;11.30;;;10.25;;
12906;SDS011;6521;50.498;8.474;2022-08-19T08:30:22;17.80;;;10.30;;
12906;SDS011;6521;50.498;8.474;2022-08-19T08:32:54;9.18;;;8.27;;
12906;SDS011;6521;50.498;8.474;2022-08-19T08:35:25;10.05;;;9.05;;
12906;SDS011;6521;50.498;8.474;2022-08-19T08:37:55;9.88;;;8.75;;
12906;SDS011;6521;50.498;8.474;2022-08-19T08:43:03;10.68;;;7.78;;
12906;SDS011;6521;50.498;8.474;2022-08-19T08:46:00;10.07;;;8.48;;
12906;SDS011;6521;50.498;8.474;2022-08-19T08:48:36;8.38;;;7.55;;
12906;SDS011;6521;50.498;8.474;2022-08-19T08:51:09;12.43;;;7.45;;
12906;SDS011;6521;50.498;8.474;2022-08-19T08:53:43;9.57;;;7.72;;
12906;SDS011;6521;50.498;8.474;2022-08-19T08:56:16;8.27;;;7.47;;
12906;SDS011;6521;50.498;8.474;2022-08-19T08:58:49;8.00;;;7.20;;
12906;SDS011;6521;50.498;8.474;2022-08-19T09:01:27;10.40;;;9.32;;
12906;SDS011;6521;50.498;8.474;2022-08-19T09:03:58;16.50;;;10.07;;
12906;SDS011;6521;50.498;8.474;2022-08-19T09:06:32;10.98;;;9.77;;
12906;SDS011;6521;50.498;8.474;2022-08-19T09:09:17;9.00;;;8.10;;
12906;SDS011;6521;50.498;8.474;2022-08-19T09:12:00;10.25;;;9.25;;
12906;SDS011;6521;50.498;8.474;2022-08-19T09:14:45;13.10;;;8.10;;
12906;SDS011;6521;50.498;8.474;2022-08-19T09:17:19;11.13;;;9.27;;
12906;SDS011;6521;50.498;8.474;2022-08-19T09:20:03;12.07;;;9.57;;
12906;SDS011;6521;50.498;8.474;2022-08-19T09:22:38;16.48;;;7.72;;
12906;SDS011;6521;50.498;8.474;2022-08-19T09:25:12;10.20;;;8.50;;
12906;SDS011;6521;50.498;8.474;2022-08-19T09:27:45;11.85;;;8.25;;
12906;SDS011;6521;50.498;8.474;2022-08-19T09:30:21;11.98;;;8.43;;
12906;SDS011;6521;50.498;8.474;2022-08-19T09:32:55;15.85;;;7.80;;
12906;SDS011;6521;50.498;8.474;2022-08-19T09:35:27;8.68;;;7.78;;
12906;SDS011;6521;50.498;8.474;2022-08-19T09:37:59;13.10;;;7.03;;
12906;SDS011;6521;50.498;8.474;2022-08-19T09:40:30;10.55;;;7.68;;
12906;SDS011;6521;50.498;8.474;2022-08-19T09:43:01;9.88;;;7.57;;
12906;SDS011;6521;50.498;8.474;2022-08-19T09:45:32;8.48;;;7.55;;
12906;SDS011;6521;50.498;8.474;2022-08-19T09:48:03;12.27;;;8.15;;
12906;SDS011;6521;50.498;8.474;2022-08-19T09:50:35;8.55;;;7.65;;
12906;SDS011;6521;50.498;8.474;2022-08-19T09:53:08;8.63;;;6.35;;
12906;SDS011;6521;50.498;8.474;2022-08-19T09:55:42;12.38;;;6.68;;
12906;SDS011;6521;50.498;8.474;2022-08-19T09:58:13;8.52;;;7.65;;
12906;SDS011;6521;50.498;8.474;2022-08-19T10:00:44;12.20;;;9.30;;
12906;SDS011;6521;50.498;8.474;2022-08-19T10:03:16;9.07;;;8.07;;
12906;SDS011;6521;50.498;8.474;2022-08-19T10:05:47;8.88;;;8.02;;
12906;SDS011;6521;50.498;8.474;2022-08-19T10:08:19;8.13;;;7.40;;
12906;SDS011;6521;50.498;8.474;2022-08-19T10:10:51;7.95;;;7.20;;
12906;SDS011;6521;50.498;8.474;2022-08-19T10:13:24;7.80;;;6.85;;
12906;SDS011;6521;50.498;8.474;2022-08-19T10:16:01;9.60;;;8.52;;
12906;SDS011;6521;50.498;8.474;2022-08-19T10:18:37;13.60;;;9.35;;
12906;SDS011;6521;50.498;8.474;2022-08-19T10:21:11;16.85;;;10.55;;
12906;SDS011;6521;50.498;8.474;2022-08-19T10:23:47;11.90;;;10.63;;
12906;SDS011;6521;50.498;8.474;2022-08-19T10:26:24;11.95;;;10.30;;
12906;SDS011;6521;50.498;8.474;2022-08-19T10:29:00;11.80;;;10.25;;
12906;SDS011;6521;50.498;8.474;2022-08-19T10:31:31;18.25;;;9.93;;
12906;SDS011;6521;50.498;8.474;2022-08-19T10:34:03;11.25;;;9.73;;
12906;SDS011;6521;50.498;8.474;2022-08-19T10:36:34;11.52;;;10.55;;
12906;SDS011;6521;50.498;8.474;2022-08-19T10:39:07;14.18;;;10.60;;
12906;SDS011;6521;50.498;8.474;2022-08-19T10:41:40;13.23;;;10.43;;
12906;SDS011;6521;50.498;8.474;2022-08-19T10:44:13;11.00;;;10.00;;
12906;SDS011;6521;50.498;8.474;2022-08-19T10:46:44;15.98;;;10.80;;
12906;SDS011;6521;50.498;8.474;2022-08-19T10:49:17;10.65;;;9.65;;
12906;SDS011;6521;50.498;8.474;2022-08-19T10:51:49;10.15;;;9.25;;
12906;SDS011;6521;50.498;8.474;2022-08-19T10:54:38;11.48;;;10.48;;
12906;SDS011;6521;50.498;8.474;2022-08-19T10:57:30;12.27;;;9.90;;
12906;SDS011;6521;50.498;8.474;2022-08-19T11:00:02;12.68;;;11.68;;
12906;SDS011;6521;50.498;8.474;2022-08-19T11:02:34;11.32;;;10.30;;
12906;SDS011;6521;50.498;8.474;2022-08-19T11:05:04;11.80;;;10.80;;
12906;SDS011;6521;50.498;8.474;2022-08-19T11:07:38;10.70;;;9.75;;
12906;SDS011;6521;50.498;8.474;2022-08-19T11:10:09;9.70;;;8.70;;
12906;SDS011;6521;50.498;8.474;2022-08-19T11:12:41;9.70;;;8.90;;
12906;SDS011;6521;50.498;8.474;2022-08-19T11:15:12;9.65;;;8.73;;
12906;SDS011;6521;50.498;8.474;2022-08-19T11:17:43;8.88;;;7.93;;
12906;SDS011;6521;50.498;8.474;2022-08-19T11:20:14;7.53;;;6.57;;
12906;SDS011;6521;50.498;8.474;2022-08-19T11:22:45;7.72;;;7.10;;
12906;SDS011;6521;50.498;8.474;2022-08-19T11:25:15;9.30;;;8.50;;
12906;SDS011;6521;50.498;8.474;2022-08-19T11:27:46;8.65;;;7.95;;
12906;SDS011;6521;50.498;8.474;2022-08-19T11:30:21;8.23;;;7.43;;
12906;SDS011;6521;50.498;8.474;2022-08-19T11:32:51;8.27;;;7.57;;
12906;SDS011;6521;50.498;8.474;2022-08-19T11:35:22;10.25;;;8.13;;
12906;SDS011;6521;50.498;8.474;2022-08-19T11:37:53;7.15;;;6.47;;
12906;SDS011;6521;50.498;8.474;2022-08-19T11:40:24;7.28;;;6.53;;
12906;SDS011;6521;50.498;8.474;2022-08-19T11:42:54;7.70;;;7.10;;
12906;SDS011;6521;50.498;8.474;2022-08-19T11:45:26;7.95;;;7.00;;
12906;SDS011;6521;50.498;8.474;2022-08-19T11:47:58;8.30;;;7.45;;
12906;SDS011;6521;50.498;8.474;2022-08-19T11:50:28;10.48;;;7.10;;
12906;SDS011;6521;50.498;8.474;2022-08-19T11:52:59;7.25;;;6.55;;
12906;SDS011;6521;50.498;8.474;2022-08-19T11:55:30;22.40;;;7.70;;
12906;SDS011;6521;50.498;8.474;2022-08-19T11:58:00;10.50;;;7.03;;
12906;SDS011;6521;50.498;8.474;2022-08-19T12:00:32;8.15;;;7.40;;
12906;SDS011;6521;50.498;8.474;2022-08-19T12:03:05;58.15;;;9.20;;
12906;SDS011;6521;50.498;8.474;2022-08-19T12:05:37;11.20;;;7.25;;
12906;SDS011;6521;50.498;8.474;2022-08-19T12:08:08;8.93;;;6.60;;
12906;SDS011;6521;50.498;8.474;2022-08-19T12:10:39;6.68;;;6.07;;
12906;SDS011;6521;50.498;8.474;2022-08-19T12:13:12;6.13;;;5.63;;
12906;SDS011;6521;50.498;8.474;2022-08-19T12:15:49;9.98;;;6.07;;
12906;SDS011;6521;50.498;8.474;2022-08-19T12:18:20;7.05;;;6.10;;
12906;SDS011;6521;50.498;8.474;2022-08-19T12:20:50;6.60;;;6.00;;
12906;SDS011;6521;50.498;8.474;2022-08-19T12:23:22;6.97;;;6.28;;
12906;SDS011;6521;50.498;8.474;2022-08-19T12:25:53;8.18;;;6.90;;
12906;SDS011;6521;50.498;8.474;2022-08-19T12:28:25;8.73;;;6.18;;
12906;SDS011;6521;50.498;8.474;2022-08-19T12:30:56;7.63;;;6.75;;
12906;SDS011;6521;50.498;8.474;2022-08-19T12:33:27;12.85;;;6.97;;
12906;SDS011;6521;50.498;8.474;2022-08-19T12:36:06;9.05;;;6.07;;
12906;SDS011;6521;50.498;8.474;2022-08-19T12:38:39;9.27;;;5.78;;
12906;SDS011;6521;50.498;8.474;2022-08-19T12:41:12;10.82;;;5.75;;
12906;SDS011;6521;50.498;8.474;2022-08-19T12:43:44;9.32;;;5.35;;
12906;SDS011;6521;50.498;8.474;2022-08-19T12:46:16;6.53;;;5.50;;
12906;SDS011;6521;50.498;8.474;2022-08-19T12:48:47;9.23;;;5.40;;
12906;SDS011;6521;50.498;8.474;2022-08-19T12:51:18;7.35;;;5.93;;
12906;SDS011;6521;50.498;8.474;2022-08-19T12:53:50;10.55;;;5.90;;
12906;SDS011;6521;50.498;8.474;2022-08-19T12:56:20;4.75;;;4.35;;
12906;SDS011;6521;50.498;8.474;2022-08-19T12:58:51;6.70;;;5.20;;
12906;SDS011;6521;50.498;8.474;2022-08-19T13:01:22;4.70;;;4.38;;
12906;SDS011;6521;50.498;8.474;2022-08-19T13:03:52;8.43;;;4.63;;
12906;SDS011;6521;50.498;8.474;2022-08-19T13:06:23;4.45;;;4.05;;
12906;SDS011;6521;50.498;8.474;2022-08-19T13:08:54;8.35;;;3.95;;
12906;SDS011;6521;50.498;8.474;2022-08-19T13:11:25;4.10;;;3.80;;
12906;SDS011;6521;50.498;8.474;2022-08-19T13:13:55;6.63;;;3.70;;
12906;SDS011;6521;50.498;8.474;2022-08-19T13:16:26;4.32;;;3.92;;
12906;SDS011;6521;50.498;8.474;2022-08-19T13:18:58;4.22;;;3.58;;
12906;SDS011;6521;50.498;8.474;2022-08-19T13:21:29;6.70;;;3.30;;
12906;SDS011;6521;50.498;8.474;2022-08-19T13:24:00;3.83;;;3.47;;
12906;SDS011;6521;50.498;8.474;2022-08-19T13:26:31;5.50;;;3.28;;
12906;SDS011;6521;50.498;8.474;2022-08-19T13:29:01;3.47;;;3.20;;
12906;SDS011;6521;50.498;8.474;2022-08-19T13:31:51;8.23;;;3.40;;
12906;SDS011;6521;50.498;8.474;2022-08-19T13:34:40;4.30;;;3.63;;
12906;SDS011;6521;50.498;8.474;2022-08-19T13:37:11;6.78;;;3.67;;
12906;SDS011;6521;50.498;8.474;2022-08-19T13:39:42;3.97;;;3.60;;
12906;SDS011;6521;50.498;8.474;2022-08-19T13:42:15;7.30;;;4.03;;
12906;SDS011;6521;50.498;8.474;2022-08-19T13:44:48;3.88;;;3.45;;
12906;SDS011;6521;50.498;8.474;2022-08-19T13:47:20;4.35;;;4.05;;
12906;SDS011;6521;50.498;8.474;2022-08-19T13:49:51;9.50;;;4.10;;
12906;SDS011;6521;50.498;8.474;2022-08-19T13:52:22;4.03;;;3.72;;
12906;SDS011;6521;50.498;8.474;2022-08-19T13:54:53;3.70;;;3.47;;
12906;SDS011;6521;50.498;8.474;2022-08-19T13:57:24;4.60;;;3.80;;
12906;SDS011;6521;50.498;8.474;2022-08-19T13:59:55;9.45;;;4.28;;
12906;SDS011;6521;50.498;8.474;2022-08-19T14:02:26;11.77;;;4.65;;
12906;SDS011;6521;50.498;8.474;2022-08-19T14:04:57;24.45;;;5.95;;
12906;SDS011;6521;50.498;8.474;2022-08-19T14:07:29;9.10;;;4.50;;
12906;SDS011;6521;50.498;8.474;2022-08-19T14:10:00;4.15;;;3.75;;
12906;SDS011;6521;50.498;8.474;2022-08-19T14:12:31;6.93;;;3.95;;
12906;SDS011;6521;50.498;8.474;2022-08-19T14:15:03;4.60;;;4.20;;
12906;SDS011;6521;50.498;8.474;2022-08-19T14:17:39;8.10;;;4.50;;
12906;SDS011;6521;50.498;8.474;2022-08-19T14:20:12;7.05;;;4.60;;
12906;SDS011;6521;50.498;8.474;2022-08-19T14:22:46;11.48;;;5.07;;
12906;SDS011;6521;50.498;8.474;2022-08-19T14:25:20;7.05;;;4.20;;
12906;SDS011;6521;50.498;8.474;2022-08-19T14:27:53;4.22;;;3.88;;
12906;SDS011;6521;50.498;8.474;2022-08-19T14:30:28;8.45;;;4.13;;
12906;SDS011;6521;50.498;8.474;2022-08-19T14:33:01;12.43;;;4.10;;
12906;SDS011;6521;50.498;8.474;2022-08-19T14:35:33;20.02;;;4.72;;
12906;SDS011;6521;50.498;8.474;2022-08-19T14:38:05;5.78;;;4.47;;
12906;SDS011;6521;50.498;8.474;2022-08-19T14:40:44;12.13;;;4.00;;
12906;SDS011;6521;50.498;8.474;2022-08-19T14:43:16;4.50;;;4.10;;
12906;SDS011;6521;50.498;8.474;2022-08-19T14:45:47;9.73;;;4.30;;
12906;SDS011;6521;50.498;8.474;2022-08-19T14:48:19;4.47;;;4.18;;
12906;SDS011;6521;50.498;8.474;2022-08-19T14:50:51;4.50;;;4.10;;
12906;SDS011;6521;50.498;8.474;2022-08-19T14:53:22;6.63;;;3.58;;
12906;SDS011;6521;50.498;8.474;2022-08-19T14:55:53;7.05;;;4.40;;
12906;SDS011;6521;50.498;8.474;2022-08-19T14:58:24;4.40;;;3.95;;
12906;SDS011;6521;50.498;8.474;2022-08-19T15:00:55;4.45;;;3.75;;
12906;SDS011;6521;50.498;8.474;2022-08-19T15:03:28;6.10;;;3.90;;
12906;SDS011;6521;50.498;8.474;2022-08-19T15:06:00;5.28;;;3.78;;
12906;SDS011;6521;50.498;8.474;2022-08-19T15:08:33;4.20;;;3.72;;
12906;SDS011;6521;50.498;8.474;2022-08-19T15:11:08;4.30;;;3.90;;
12906;SDS011;6521;50.498;8.474;2022-08-19T15:13:40;6.00;;;3.85;;
12906;SDS011;6521;50.498;8.474;2022-08-19T15:16:11;3.80;;;3.50;;
12906;SDS011;6521;50.498;8.474;2022-08-19T15:18:45;4.82;;;3.70;;
12906;SDS011;6521;50.498;8.474;2022-08-19T15:21:20;5.10;;;4.07;;
12906;SDS011;6521;50.498;8.474;2022-08-19T15:23:51;9.90;;;3.80;;